Terminal Aerodrome Forecast
Issued by NWS

Home | Current Version | Previous Version | Graphics & Text | Print | Product List | Glossary On
Versions: 1 2 3 4 5 6 7 8 9 10 11 12 13 14 15 16 17 18 19 20 21 22 23
000
FTUS43 KABR 141100
TAFATY
TAF
KATY 141140Z 1412/1512 34010KT P6SM BKN080
     FM141500 33008KT P6SM BKN040
      TEMPO 1416/1420 3SM -SHSN BKN025
     FM142000 35017KT P6SM VCSH BKN040
     FM150000 33013KT P6SM SCT050
     FM150400 VRB03KT P6SM SKC=

USA.gov is the U.S. government's official web portal to all federal, state and local government web resources and services.